sensor_id;sensor_type;location;lat;lon;timestamp;temperature;humidity
12971;DHT22;6550;48.650;8.774;2023-05-10T00:00:04;15.90;99.90
12971;DHT22;6550;48.650;8.774;2023-05-10T00:02:31;15.80;99.90
12971;DHT22;6550;48.650;8.774;2023-05-10T00:04:58;15.90;99.90
12971;DHT22;6550;48.650;8.774;2023-05-10T00:07:24;15.90;99.90
12971;DHT22;6550;48.650;8.774;2023-05-10T00:09:51;15.90;99.90
12971;DHT22;6550;48.650;8.774;2023-05-10T00:12:18;15.90;99.90
12971;DHT22;6550;48.650;8.774;2023-05-10T00:14:45;15.80;99.90
12971;DHT22;6550;48.650;8.774;2023-05-10T00:17:11;15.70;99.90
12971;DHT22;6550;48.650;8.774;2023-05-10T00:19:38;15.70;99.90
12971;DHT22;6550;48.650;8.774;2023-05-10T00:26:59;15.70;99.90
12971;DHT22;6550;48.650;8.774;2023-05-10T00:29:27;15.50;99.90
12971;DHT22;6550;48.650;8.774;2023-05-10T00:31:54;15.60;99.90
12971;DHT22;6550;48.650;8.774;2023-05-10T00:34:21;15.60;99.90
12971;DHT22;6550;48.650;8.774;2023-05-10T00:36:48;15.60;99.90
12971;DHT22;6550;48.650;8.774;2023-05-10T00:39:17;15.60;99.90
12971;DHT22;6550;48.650;8.774;2023-05-10T00:41:46;15.60;99.90
12971;DHT22;6550;48.650;8.774;2023-05-10T00:44:15;15.60;99.90
12971;DHT22;6550;48.650;8.774;2023-05-10T00:46:44;15.70;99.90
12971;DHT22;6550;48.650;8.774;2023-05-10T00:49:13;15.70;99.90
12971;DHT22;6550;48.650;8.774;2023-05-10T00:51:40;15.70;99.90
12971;DHT22;6550;48.650;8.774;2023-05-10T00:54:12;15.70;99.90
12971;DHT22;6550;48.650;8.774;2023-05-10T00:56:42;15.70;99.90
12971;DHT22;6550;48.650;8.774;2023-05-10T00:59:18;15.60;99.90
12971;DHT22;6550;48.650;8.774;2023-05-10T01:01:47;15.60;99.90
12971;DHT22;6550;48.650;8.774;2023-05-10T01:04:14;15.50;99.90
12971;DHT22;6550;48.650;8.774;2023-05-10T01:06:42;15.60;99.90
12971;DHT22;6550;48.650;8.774;2023-05-10T01:09:09;15.50;99.90
12971;DHT22;6550;48.650;8.774;2023-05-10T01:11:41;15.50;99.90
12971;DHT22;6550;48.650;8.774;2023-05-10T01:14:08;15.50;99.90
12971;DHT22;6550;48.650;8.774;2023-05-10T01:16:38;15.50;99.90
12971;DHT22;6550;48.650;8.774;2023-05-10T01:19:17;15.50;99.90
12971;DHT22;6550;48.650;8.774;2023-05-10T01:30:33;15.50;99.90
12971;DHT22;6550;48.650;8.774;2023-05-10T01:38:43;15.40;99.90
12971;DHT22;6550;48.650;8.774;2023-05-10T01:44:09;15.40;99.90
12971;DHT22;6550;48.650;8.774;2023-05-10T01:46:38;15.30;99.90
12971;DHT22;6550;48.650;8.774;2023-05-10T01:49:21;15.20;99.90
12971;DHT22;6550;48.650;8.774;2023-05-10T01:51:54;15.20;99.90
12971;DHT22;6550;48.650;8.774;2023-05-10T01:54:27;15.10;99.90
12971;DHT22;6550;48.650;8.774;2023-05-10T01:57:05;15.20;99.90
12971;DHT22;6550;48.650;8.774;2023-05-10T01:59:35;15.20;99.90
12971;DHT22;6550;48.650;8.774;2023-05-10T02:02:07;15.20;99.90
12971;DHT22;6550;48.650;8.774;2023-05-10T02:04:41;15.20;99.90
12971;DHT22;6550;48.650;8.774;2023-05-10T02:07:09;15.10;99.90
12971;DHT22;6550;48.650;8.774;2023-05-10T02:09:36;15.10;99.90
12971;DHT22;6550;48.650;8.774;2023-05-10T02:12:06;15.20;99.90
12971;DHT22;6550;48.650;8.774;2023-05-10T02:14:36;15.10;99.90
12971;DHT22;6550;48.650;8.774;2023-05-10T02:17:06;15.10;99.90
12971;DHT22;6550;48.650;8.774;2023-05-10T02:19:38;15.50;99.90
12971;DHT22;6550;48.650;8.774;2023-05-10T02:22:10;15.10;99.90
12971;DHT22;6550;48.650;8.774;2023-05-10T02:24:40;15.00;99.90
12971;DHT22;6550;48.650;8.774;2023-05-10T02:27:08;15.10;99.90
12971;DHT22;6550;48.650;8.774;2023-05-10T02:29:36;15.40;99.90
12971;DHT22;6550;48.650;8.774;2023-05-10T02:32:05;15.00;99.90
12971;DHT22;6550;48.650;8.774;2023-05-10T02:34:33;15.00;99.90
12971;DHT22;6550;48.650;8.774;2023-05-10T02:37:02;15.60;99.90
12971;DHT22;6550;48.650;8.774;2023-05-10T02:39:31;14.90;99.90
12971;DHT22;6550;48.650;8.774;2023-05-10T02:41:59;15.00;99.90
12971;DHT22;6550;48.650;8.774;2023-05-10T02:44:28;15.10;99.90
12971;DHT22;6550;48.650;8.774;2023-05-10T02:46:57;14.90;99.90
12971;DHT22;6550;48.650;8.774;2023-05-10T02:49:25;15.00;99.90
12971;DHT22;6550;48.650;8.774;2023-05-10T02:51:56;15.30;99.90
12971;DHT22;6550;48.650;8.774;2023-05-10T02:54:30;15.00;99.90
12971;DHT22;6550;48.650;8.774;2023-05-10T02:57:04;15.00;99.90
12971;DHT22;6550;48.650;8.774;2023-05-10T02:59:32;14.90;99.90
12971;DHT22;6550;48.650;8.774;2023-05-10T03:01:59;14.90;99.90
12971;DHT22;6550;48.650;8.774;2023-05-10T03:04:26;15.20;99.90
12971;DHT22;6550;48.650;8.774;2023-05-10T03:06:56;15.60;99.90
12971;DHT22;6550;48.650;8.774;2023-05-10T03:09:23;14.90;99.90
12971;DHT22;6550;48.650;8.774;2023-05-10T03:12:15;14.90;99.90
12971;DHT22;6550;48.650;8.774;2023-05-10T03:17:55;14.90;99.90
12971;DHT22;6550;48.650;8.774;2023-05-10T03:20:25;14.90;99.90
12971;DHT22;6550;48.650;8.774;2023-05-10T03:22:57;14.90;99.90
12971;DHT22;6550;48.650;8.774;2023-05-10T03:25:29;15.00;99.90
12971;DHT22;6550;48.650;8.774;2023-05-10T03:28:01;14.90;99.90
12971;DHT22;6550;48.650;8.774;2023-05-10T03:30:35;15.00;99.90
12971;DHT22;6550;48.650;8.774;2023-05-10T03:33:07;15.00;99.90
12971;DHT22;6550;48.650;8.774;2023-05-10T03:35:36;15.00;99.90
12971;DHT22;6550;48.650;8.774;2023-05-10T03:38:02;15.00;99.90
12971;DHT22;6550;48.650;8.774;2023-05-10T03:40:32;15.00;99.90
12971;DHT22;6550;48.650;8.774;2023-05-10T03:42:59;15.00;99.90
12971;DHT22;6550;48.650;8.774;2023-05-10T03:45:26;15.00;99.90
12971;DHT22;6550;48.650;8.774;2023-05-10T03:47:53;14.90;99.90
12971;DHT22;6550;48.650;8.774;2023-05-10T03:50:20;15.70;99.90
12971;DHT22;6550;48.650;8.774;2023-05-10T03:55:14;14.90;99.90
12971;DHT22;6550;48.650;8.774;2023-05-10T03:57:42;14.80;99.90
12971;DHT22;6550;48.650;8.774;2023-05-10T04:00:09;14.80;99.90
12971;DHT22;6550;48.650;8.774;2023-05-10T04:02:36;14.80;99.90
12971;DHT22;6550;48.650;8.774;2023-05-10T04:05:06;14.80;99.90
12971;DHT22;6550;48.650;8.774;2023-05-10T04:07:35;14.80;99.90
12971;DHT22;6550;48.650;8.774;2023-05-10T04:10:05;14.70;99.90
12971;DHT22;6550;48.650;8.774;2023-05-10T04:12:32;14.70;99.90
12971;DHT22;6550;48.650;8.774;2023-05-10T04:17:26;14.60;99.90
12971;DHT22;6550;48.650;8.774;2023-05-10T04:19:53;14.60;99.90
12971;DHT22;6550;48.650;8.774;2023-05-10T04:22:22;14.60;99.90
12971;DHT22;6550;48.650;8.774;2023-05-10T04:24:49;14.60;99.90
12971;DHT22;6550;48.650;8.774;2023-05-10T04:27:18;14.60;99.90
12971;DHT22;6550;48.650;8.774;2023-05-10T04:29:44;14.70;99.90
12971;DHT22;6550;48.650;8.774;2023-05-10T04:32:11;14.70;99.90
12971;DHT22;6550;48.650;8.774;2023-05-10T04:34:38;14.60;99.90
12971;DHT22;6550;48.650;8.774;2023-05-10T04:37:07;14.60;99.90
12971;DHT22;6550;48.650;8.774;2023-05-10T04:39:36;14.70;99.90
12971;DHT22;6550;48.650;8.774;2023-05-10T04:42:04;14.70;99.90
12971;DHT22;6550;48.650;8.774;2023-05-10T04:44:33;14.70;99.90
12971;DHT22;6550;48.650;8.774;2023-05-10T04:47:00;14.60;99.90
12971;DHT22;6550;48.650;8.774;2023-05-10T04:49:29;14.70;99.90
12971;DHT22;6550;48.650;8.774;2023-05-10T04:51:58;14.70;99.90
12971;DHT22;6550;48.650;8.774;2023-05-10T04:54:25;14.70;99.90
12971;DHT22;6550;48.650;8.774;2023-05-10T04:56:54;14.80;99.90
12971;DHT22;6550;48.650;8.774;2023-05-10T04:59:20;14.70;99.90
12971;DHT22;6550;48.650;8.774;2023-05-10T05:01:50;14.70;99.90
12971;DHT22;6550;48.650;8.774;2023-05-10T05:04:16;14.70;99.90
12971;DHT22;6550;48.650;8.774;2023-05-10T05:06:45;14.70;99.90
12971;DHT22;6550;48.650;8.774;2023-05-10T05:09:17;14.70;99.90
12971;DHT22;6550;48.650;8.774;2023-05-10T05:11:46;14.70;99.90
12971;DHT22;6550;48.650;8.774;2023-05-10T05:14:15;14.80;99.90
12971;DHT22;6550;48.650;8.774;2023-05-10T05:16:43;14.80;99.90
12971;DHT22;6550;48.650;8.774;2023-05-10T05:19:14;14.80;99.90
12971;DHT22;6550;48.650;8.774;2023-05-10T05:21:45;14.90;99.90
12971;DHT22;6550;48.650;8.774;2023-05-10T05:24:12;14.90;99.90
12971;DHT22;6550;48.650;8.774;2023-05-10T05:26:41;15.00;99.90
12971;DHT22;6550;48.650;8.774;2023-05-10T05:31:37;15.00;99.90
12971;DHT22;6550;48.650;8.774;2023-05-10T05:34:07;15.00;99.90
12971;DHT22;6550;48.650;8.774;2023-05-10T05:36:36;15.00;99.90
12971;DHT22;6550;48.650;8.774;2023-05-10T05:39:04;15.10;99.90
12971;DHT22;6550;48.650;8.774;2023-05-10T05:41:34;15.10;99.90
12971;DHT22;6550;48.650;8.774;2023-05-10T05:44:00;15.20;99.90
12971;DHT22;6550;48.650;8.774;2023-05-10T05:46:29;15.30;99.90
12971;DHT22;6550;48.650;8.774;2023-05-10T05:48:56;15.40;99.90
12971;DHT22;6550;48.650;8.774;2023-05-10T05:51:25;15.40;99.90
12971;DHT22;6550;48.650;8.774;2023-05-10T05:53:52;15.50;99.90
12971;DHT22;6550;48.650;8.774;2023-05-10T05:56:21;15.50;99.90
12971;DHT22;6550;48.650;8.774;2023-05-10T05:58:53;15.50;99.90
12971;DHT22;6550;48.650;8.774;2023-05-10T06:03:49;15.50;99.90
12971;DHT22;6550;48.650;8.774;2023-05-10T06:06:18;15.40;99.90
12971;DHT22;6550;48.650;8.774;2023-05-10T06:08:48;15.30;99.90
12971;DHT22;6550;48.650;8.774;2023-05-10T06:11:14;15.50;99.90
12971;DHT22;6550;48.650;8.774;2023-05-10T06:13:41;15.70;99.90
12971;DHT22;6550;48.650;8.774;2023-05-10T06:16:08;15.80;99.90
12971;DHT22;6550;48.650;8.774;2023-05-10T06:18:35;15.80;99.90
12971;DHT22;6550;48.650;8.774;2023-05-10T06:21:02;15.90;99.90
12971;DHT22;6550;48.650;8.774;2023-05-10T06:23:31;15.90;99.90
12971;DHT22;6550;48.650;8.774;2023-05-10T06:28:25;16.00;99.90
12971;DHT22;6550;48.650;8.774;2023-05-10T06:33:22;16.10;99.90
12971;DHT22;6550;48.650;8.774;2023-05-10T06:35:51;16.40;99.90
12971;DHT22;6550;48.650;8.774;2023-05-10T06:38:20;16.50;99.90
12971;DHT22;6550;48.650;8.774;2023-05-10T06:40:49;16.60;99.90
12971;DHT22;6550;48.650;8.774;2023-05-10T06:45:47;16.70;99.90
12971;DHT22;6550;48.650;8.774;2023-05-10T06:48:13;16.80;99.90
12971;DHT22;6550;48.650;8.774;2023-05-10T06:50:40;16.80;99.90
12971;DHT22;6550;48.650;8.774;2023-05-10T06:53:12;16.80;99.90
12971;DHT22;6550;48.650;8.774;2023-05-10T06:55:39;16.90;99.90
12971;DHT22;6550;48.650;8.774;2023-05-10T06:58:08;17.00;99.90
12971;DHT22;6550;48.650;8.774;2023-05-10T07:00:35;16.90;99.90
12971;DHT22;6550;48.650;8.774;2023-05-10T07:03:05;17.00;99.90
12971;DHT22;6550;48.650;8.774;2023-05-10T07:05:32;16.90;99.90
12971;DHT22;6550;48.650;8.774;2023-05-10T07:07:59;17.10;99.90
12971;DHT22;6550;48.650;8.774;2023-05-10T07:10:26;17.00;99.90
12971;DHT22;6550;48.650;8.774;2023-05-10T07:12:53;17.10;99.90
12971;DHT22;6550;48.650;8.774;2023-05-10T07:15:20;17.00;99.90
12971;DHT22;6550;48.650;8.774;2023-05-10T07:17:47;17.10;99.90
12971;DHT22;6550;48.650;8.774;2023-05-10T07:20:16;17.10;99.90
12971;DHT22;6550;48.650;8.774;2023-05-10T07:22:43;17.20;99.90
12971;DHT22;6550;48.650;8.774;2023-05-10T07:25:09;17.30;99.90
12971;DHT22;6550;48.650;8.774;2023-05-10T07:27:37;17.40;99.90
12971;DHT22;6550;48.650;8.774;2023-05-10T07:30:08;17.40;99.90
12971;DHT22;6550;48.650;8.774;2023-05-10T07:32:35;17.40;99.90
12971;DHT22;6550;48.650;8.774;2023-05-10T07:35:04;17.40;99.90
12971;DHT22;6550;48.650;8.774;2023-05-10T07:37:32;17.60;99.90
12971;DHT22;6550;48.650;8.774;2023-05-10T07:40:03;17.30;99.90
12971;DHT22;6550;48.650;8.774;2023-05-10T07:42:30;17.10;99.90
12971;DHT22;6550;48.650;8.774;2023-05-10T07:44:57;17.00;99.90
12971;DHT22;6550;48.650;8.774;2023-05-10T07:47:24;17.10;99.90
12971;DHT22;6550;48.650;8.774;2023-05-10T07:49:51;17.10;99.90
12971;DHT22;6550;48.650;8.774;2023-05-10T07:52:22;17.40;99.90
12971;DHT22;6550;48.650;8.774;2023-05-10T08:44:50;19.10;99.90
12971;DHT22;6550;48.650;8.774;2023-05-10T08:47:18;19.10;99.90
12971;DHT22;6550;48.650;8.774;2023-05-10T08:49:49;19.10;99.90
12971;DHT22;6550;48.650;8.774;2023-05-10T08:52:17;19.30;99.90
12971;DHT22;6550;48.650;8.774;2023-05-10T08:59:41;18.80;99.90
12971;DHT22;6550;48.650;8.774;2023-05-10T09:14:34;18.70;99.90
12971;DHT22;6550;48.650;8.774;2023-05-10T09:29:21;19.70;95.50
12971;DHT22;6550;48.650;8.774;2023-05-10T09:31:52;19.70;95.20
12971;DHT22;6550;48.650;8.774;2023-05-10T09:34:31;19.80;94.90
12971;DHT22;6550;48.650;8.774;2023-05-10T09:37:00;19.60;94.30
12971;DHT22;6550;48.650;8.774;2023-05-10T09:39:37;19.90;95.40
12971;DHT22;6550;48.650;8.774;2023-05-10T09:42:11;20.00;94.30
12971;DHT22;6550;48.650;8.774;2023-05-10T09:44:37;20.40;93.40
12971;DHT22;6550;48.650;8.774;2023-05-10T09:47:05;20.40;94.20
12971;DHT22;6550;48.650;8.774;2023-05-10T09:49:32;20.60;94.80
12971;DHT22;6550;48.650;8.774;2023-05-10T09:52:06;20.50;95.00
12971;DHT22;6550;48.650;8.774;2023-05-10T09:54:33;20.50;93.90
12971;DHT22;6550;48.650;8.774;2023-05-10T09:57:01;20.20;93.10
12971;DHT22;6550;48.650;8.774;2023-05-10T09:59:33;20.10;93.30
12971;DHT22;6550;48.650;8.774;2023-05-10T10:02:04;20.30;94.30
12971;DHT22;6550;48.650;8.774;2023-05-10T10:04:30;20.20;94.40
12971;DHT22;6550;48.650;8.774;2023-05-10T10:07:02;20.20;93.80
12971;DHT22;6550;48.650;8.774;2023-05-10T10:09:31;20.20;98.30
12971;DHT22;6550;48.650;8.774;2023-05-10T10:11:59;20.20;99.90
12971;DHT22;6550;48.650;8.774;2023-05-10T10:16:55;19.60;99.10
12971;DHT22;6550;48.650;8.774;2023-05-10T10:19:34;19.10;99.90
12971;DHT22;6550;48.650;8.774;2023-05-10T10:22:06;19.00;99.10
12971;DHT22;6550;48.650;8.774;2023-05-10T10:24:35;18.90;99.90
12971;DHT22;6550;48.650;8.774;2023-05-10T10:32:37;18.70;95.90
12971;DHT22;6550;48.650;8.774;2023-05-10T10:35:09;18.70;97.20
12971;DHT22;6550;48.650;8.774;2023-05-10T10:37:45;18.80;97.70
12971;DHT22;6550;48.650;8.774;2023-05-10T10:40:29;19.00;97.40
12971;DHT22;6550;48.650;8.774;2023-05-10T10:43:38;19.10;97.60
12971;DHT22;6550;48.650;8.774;2023-05-10T10:48:49;19.20;97.10
12971;DHT22;6550;48.650;8.774;2023-05-10T10:51:18;19.00;98.60
12971;DHT22;6550;48.650;8.774;2023-05-10T10:53:47;19.20;97.60
12971;DHT22;6550;48.650;8.774;2023-05-10T10:56:14;19.20;97.90
12971;DHT22;6550;48.650;8.774;2023-05-10T10:58:49;19.30;98.20
12971;DHT22;6550;48.650;8.774;2023-05-10T11:01:18;19.40;98.30
12971;DHT22;6550;48.650;8.774;2023-05-10T11:06:36;19.70;98.40
12971;DHT22;6550;48.650;8.774;2023-05-10T11:09:10;19.80;97.90
12971;DHT22;6550;48.650;8.774;2023-05-10T11:11:54;19.90;97.80
12971;DHT22;6550;48.650;8.774;2023-05-10T11:14:27;20.00;98.90
12971;DHT22;6550;48.650;8.774;2023-05-10T11:16:53;20.00;98.30
12971;DHT22;6550;48.650;8.774;2023-05-10T11:19:23;20.20;98.60
12971;DHT22;6550;48.650;8.774;2023-05-10T11:24:33;20.50;96.00
12971;DHT22;6550;48.650;8.774;2023-05-10T11:27:00;20.50;94.90
12971;DHT22;6550;48.650;8.774;2023-05-10T11:29:29;20.50;93.90
12971;DHT22;6550;48.650;8.774;2023-05-10T11:31:59;20.80;93.30
12971;DHT22;6550;48.650;8.774;2023-05-10T11:36:55;22.00;93.20
12971;DHT22;6550;48.650;8.774;2023-05-10T11:39:26;21.40;92.30
12971;DHT22;6550;48.650;8.774;2023-05-10T11:41:54;21.70;92.50
12971;DHT22;6550;48.650;8.774;2023-05-10T11:44:21;21.70;91.00
12971;DHT22;6550;48.650;8.774;2023-05-10T11:46:48;21.70;92.00
12971;DHT22;6550;48.650;8.774;2023-05-10T11:49:18;22.30;91.10
12971;DHT22;6550;48.650;8.774;2023-05-10T11:51:45;21.10;86.50
12971;DHT22;6550;48.650;8.774;2023-05-10T11:54:16;20.90;87.60
12971;DHT22;6550;48.650;8.774;2023-05-10T11:56:43;21.10;88.30
12971;DHT22;6550;48.650;8.774;2023-05-10T11:59:09;20.70;90.10
12971;DHT22;6550;48.650;8.774;2023-05-10T12:01:36;20.60;89.60
12971;DHT22;6550;48.650;8.774;2023-05-10T12:06:32;20.50;89.30
12971;DHT22;6550;48.650;8.774;2023-05-10T12:09:06;20.70;90.10
12971;DHT22;6550;48.650;8.774;2023-05-10T12:11:42;20.70;90.10
12971;DHT22;6550;48.650;8.774;2023-05-10T12:14:12;20.80;90.30
12971;DHT22;6550;48.650;8.774;2023-05-10T12:16:39;20.80;90.90
12971;DHT22;6550;48.650;8.774;2023-05-10T12:19:10;20.90;91.10
12971;DHT22;6550;48.650;8.774;2023-05-10T12:21:39;20.80;91.30
12971;DHT22;6550;48.650;8.774;2023-05-10T12:24:09;20.90;91.60
12971;DHT22;6550;48.650;8.774;2023-05-10T12:26:37;20.90;90.90
12971;DHT22;6550;48.650;8.774;2023-05-10T12:29:15;20.90;90.10
12971;DHT22;6550;48.650;8.774;2023-05-10T12:31:58;20.70;93.40
12971;DHT22;6550;48.650;8.774;2023-05-10T12:34:31;20.50;90.50
12971;DHT22;6550;48.650;8.774;2023-05-10T12:37:04;20.60;90.30
12971;DHT22;6550;48.650;8.774;2023-05-10T12:39:44;20.70;90.40
12971;DHT22;6550;48.650;8.774;2023-05-10T12:42:13;21.20;91.00
12971;DHT22;6550;48.650;8.774;2023-05-10T12:44:40;21.20;90.80
12971;DHT22;6550;48.650;8.774;2023-05-10T12:47:07;21.30;90.80
12971;DHT22;6550;48.650;8.774;2023-05-10T12:49:34;21.60;90.40
12971;DHT22;6550;48.650;8.774;2023-05-10T12:52:01;21.70;89.10
12971;DHT22;6550;48.650;8.774;2023-05-10T12:54:30;21.90;89.90
12971;DHT22;6550;48.650;8.774;2023-05-10T12:56:59;22.10;90.10
12971;DHT22;6550;48.650;8.774;2023-05-10T12:59:26;22.30;89.40
12971;DHT22;6550;48.650;8.774;2023-05-10T13:01:53;22.40;89.90
12971;DHT22;6550;48.650;8.774;2023-05-10T13:04:20;22.40;85.80
12971;DHT22;6550;48.650;8.774;2023-05-10T13:06:49;22.20;87.00
12971;DHT22;6550;48.650;8.774;2023-05-10T13:09:16;22.30;88.00
12971;DHT22;6550;48.650;8.774;2023-05-10T13:11:45;22.30;88.80
12971;DHT22;6550;48.650;8.774;2023-05-10T13:14:13;22.20;87.60
12971;DHT22;6550;48.650;8.774;2023-05-10T13:16:45;22.20;88.40
12971;DHT22;6550;48.650;8.774;2023-05-10T13:19:15;22.30;87.80
12971;DHT22;6550;48.650;8.774;2023-05-10T13:21:43;22.40;86.50
12971;DHT22;6550;48.650;8.774;2023-05-10T13:24:11;22.50;88.10
12971;DHT22;6550;48.650;8.774;2023-05-10T13:26:40;22.60;84.30
12971;DHT22;6550;48.650;8.774;2023-05-10T13:29:09;22.70;86.70
12971;DHT22;6550;48.650;8.774;2023-05-10T13:31:36;22.70;83.70
12971;DHT22;6550;48.650;8.774;2023-05-10T13:34:04;22.80;85.00
12971;DHT22;6550;48.650;8.774;2023-05-10T13:38:58;22.90;83.00
12971;DHT22;6550;48.650;8.774;2023-05-10T13:41:29;22.70;83.70
12971;DHT22;6550;48.650;8.774;2023-05-10T13:43:57;22.60;78.90
12971;DHT22;6550;48.650;8.774;2023-05-10T13:48:54;22.10;82.30
12971;DHT22;6550;48.650;8.774;2023-05-10T13:51:20;23.00;83.50
12971;DHT22;6550;48.650;8.774;2023-05-10T13:53:47;22.90;83.90
12971;DHT22;6550;48.650;8.774;2023-05-10T13:56:14;22.90;81.70
12971;DHT22;6550;48.650;8.774;2023-05-10T13:58:41;22.80;81.50
12971;DHT22;6550;48.650;8.774;2023-05-10T14:01:08;22.90;82.60
12971;DHT22;6550;48.650;8.774;2023-05-10T14:03:35;22.80;81.60
12971;DHT22;6550;48.650;8.774;2023-05-10T14:06:04;22.70;78.80
12971;DHT22;6550;48.650;8.774;2023-05-10T14:08:35;22.50;76.50
12971;DHT22;6550;48.650;8.774;2023-05-10T14:11:01;22.20;76.70
12971;DHT22;6550;48.650;8.774;2023-05-10T14:13:28;22.00;75.20
12971;DHT22;6550;48.650;8.774;2023-05-10T14:15:55;21.70;74.30
12971;DHT22;6550;48.650;8.774;2023-05-10T14:18:22;21.60;74.40
12971;DHT22;6550;48.650;8.774;2023-05-10T14:20:54;21.70;76.70
12971;DHT22;6550;48.650;8.774;2023-05-10T14:23:22;21.50;75.00
12971;DHT22;6550;48.650;8.774;2023-05-10T14:25:52;21.50;73.90
12971;DHT22;6550;48.650;8.774;2023-05-10T14:28:19;21.40;76.30
12971;DHT22;6550;48.650;8.774;2023-05-10T14:30:49;21.30;77.10
12971;DHT22;6550;48.650;8.774;2023-05-10T14:33:17;21.60;79.80
12971;DHT22;6550;48.650;8.774;2023-05-10T14:35:47;21.20;78.10
12971;DHT22;6550;48.650;8.774;2023-05-10T14:38:14;21.20;77.90
12971;DHT22;6550;48.650;8.774;2023-05-10T14:40:41;21.20;77.80
12971;DHT22;6550;48.650;8.774;2023-05-10T14:43:08;21.20;79.40
12971;DHT22;6550;48.650;8.774;2023-05-10T14:45:37;21.20;75.30
12971;DHT22;6550;48.650;8.774;2023-05-10T14:48:05;21.20;75.70
12971;DHT22;6550;48.650;8.774;2023-05-10T14:50:37;21.10;77.20
12971;DHT22;6550;48.650;8.774;2023-05-10T14:53:05;21.00;79.30
12971;DHT22;6550;48.650;8.774;2023-05-10T14:58:02;21.20;80.30
12971;DHT22;6550;48.650;8.774;2023-05-10T15:00:31;21.30;79.80
12971;DHT22;6550;48.650;8.774;2023-05-10T15:02:59;21.30;79.30
12971;DHT22;6550;48.650;8.774;2023-05-10T15:05:30;21.30;81.50
12971;DHT22;6550;48.650;8.774;2023-05-10T15:08:00;21.50;84.70
12971;DHT22;6550;48.650;8.774;2023-05-10T15:10:27;21.60;83.10
12971;DHT22;6550;48.650;8.774;2023-05-10T15:12:58;21.50;81.20
12971;DHT22;6550;48.650;8.774;2023-05-10T15:15:25;21.50;81.50
12971;DHT22;6550;48.650;8.774;2023-05-10T15:17:52;21.40;83.40
12971;DHT22;6550;48.650;8.774;2023-05-10T15:20:19;21.60;83.90
12971;DHT22;6550;48.650;8.774;2023-05-10T15:22:46;21.70;84.30
12971;DHT22;6550;48.650;8.774;2023-05-10T15:25:13;21.80;81.00
12971;DHT22;6550;48.650;8.774;2023-05-10T15:27:41;21.70;79.50
12971;DHT22;6550;48.650;8.774;2023-05-10T15:30:10;21.70;81.20
12971;DHT22;6550;48.650;8.774;2023-05-10T15:32:37;21.70;82.80
12971;DHT22;6550;48.650;8.774;2023-05-10T15:35:08;21.80;80.80
12971;DHT22;6550;48.650;8.774;2023-05-10T15:37:37;21.70;79.40
12971;DHT22;6550;48.650;8.774;2023-05-10T15:40:06;21.50;79.10
12971;DHT22;6550;48.650;8.774;2023-05-10T15:42:33;21.50;79.40
12971;DHT22;6550;48.650;8.774;2023-05-10T15:45:01;21.60;81.50
12971;DHT22;6550;48.650;8.774;2023-05-10T15:47:29;21.70;82.70
12971;DHT22;6550;48.650;8.774;2023-05-10T15:49:57;22.00;82.90
12971;DHT22;6550;48.650;8.774;2023-05-10T15:52:26;21.90;83.90
12971;DHT22;6550;48.650;8.774;2023-05-10T15:54:53;21.90;81.90
12971;DHT22;6550;48.650;8.774;2023-05-10T15:57:20;21.90;83.30
12971;DHT22;6550;48.650;8.774;2023-05-10T15:59:48;21.70;80.80
12971;DHT22;6550;48.650;8.774;2023-05-10T16:02:15;21.20;80.50
12971;DHT22;6550;48.650;8.774;2023-05-10T16:04:43;21.10;80.60
12971;DHT22;6550;48.650;8.774;2023-05-10T16:07:12;21.00;83.20
12971;DHT22;6550;48.650;8.774;2023-05-10T16:09:39;21.10;81.20
12971;DHT22;6550;48.650;8.774;2023-05-10T16:12:07;20.90;83.50
12971;DHT22;6550;48.650;8.774;2023-05-10T16:14:34;20.80;83.80
12971;DHT22;6550;48.650;8.774;2023-05-10T16:17:00;20.70;82.10
12971;DHT22;6550;48.650;8.774;2023-05-10T16:19:30;20.50;83.90
12971;DHT22;6550;48.650;8.774;2023-05-10T16:21:57;20.30;83.40
12971;DHT22;6550;48.650;8.774;2023-05-10T16:24:24;20.40;85.70
12971;DHT22;6550;48.650;8.774;2023-05-10T16:26:51;20.40;85.60
12971;DHT22;6550;48.650;8.774;2023-05-10T16:29:21;20.20;84.50
12971;DHT22;6550;48.650;8.774;2023-05-10T16:31:47;20.20;86.50
12971;DHT22;6550;48.650;8.774;2023-05-10T16:34:17;20.20;85.60
12971;DHT22;6550;48.650;8.774;2023-05-10T16:36:45;20.10;86.00
12971;DHT22;6550;48.650;8.774;2023-05-10T16:39:12;20.00;86.90
12971;DHT22;6550;48.650;8.774;2023-05-10T16:41:41;19.90;87.50
12971;DHT22;6550;48.650;8.774;2023-05-10T16:44:10;19.80;87.80
12971;DHT22;6550;48.650;8.774;2023-05-10T16:46:37;19.80;88.50
12971;DHT22;6550;48.650;8.774;2023-05-10T16:49:10;19.70;88.20
12971;DHT22;6550;48.650;8.774;2023-05-10T16:51:39;19.60;89.20
12971;DHT22;6550;48.650;8.774;2023-05-10T16:54:06;19.60;89.50
12971;DHT22;6550;48.650;8.774;2023-05-10T16:56:38;19.60;89.30
12971;DHT22;6550;48.650;8.774;2023-05-10T16:59:04;19.60;89.80
12971;DHT22;6550;48.650;8.774;2023-05-10T17:01:34;19.60;90.20
12971;DHT22;6550;48.650;8.774;2023-05-10T17:04:03;19.60;90.30
12971;DHT22;6550;48.650;8.774;2023-05-10T17:06:34;19.60;90.30
12971;DHT22;6550;48.650;8.774;2023-05-10T17:09:00;19.60;90.30
12971;DHT22;6550;48.650;8.774;2023-05-10T17:11:29;19.40;90.30
12971;DHT22;6550;48.650;8.774;2023-05-10T17:13:57;19.40;90.90
12971;DHT22;6550;48.650;8.774;2023-05-10T17:16:28;19.10;90.90
12971;DHT22;6550;48.650;8.774;2023-05-10T17:18:58;19.10;91.50
12971;DHT22;6550;48.650;8.774;2023-05-10T17:21:27;19.00;91.30
12971;DHT22;6550;48.650;8.774;2023-05-10T17:23:54;18.90;91.40
12971;DHT22;6550;48.650;8.774;2023-05-10T17:26:23;19.00;91.70
12971;DHT22;6550;48.650;8.774;2023-05-10T17:28:53;18.90;92.00
12971;DHT22;6550;48.650;8.774;2023-05-10T17:31:20;18.80;91.70
12971;DHT22;6550;48.650;8.774;2023-05-10T17:33:49;18.80;92.00
12971;DHT22;6550;48.650;8.774;2023-05-10T17:36:18;18.80;92.30
12971;DHT22;6550;48.650;8.774;2023-05-10T17:38:48;18.70;92.80
12971;DHT22;6550;48.650;8.774;2023-05-10T17:41:17;18.60;92.40
12971;DHT22;6550;48.650;8.774;2023-05-10T17:43:47;18.60;92.80
12971;DHT22;6550;48.650;8.774;2023-05-10T17:46:13;18.70;92.90
12971;DHT22;6550;48.650;8.774;2023-05-10T17:48:43;18.40;93.00
12971;DHT22;6550;48.650;8.774;2023-05-10T17:51:09;18.50;93.20
12971;DHT22;6550;48.650;8.774;2023-05-10T17:53:40;18.50;93.20
12971;DHT22;6550;48.650;8.774;2023-05-10T17:56:10;18.60;93.10
12971;DHT22;6550;48.650;8.774;2023-05-10T17:58:36;18.50;93.80
12971;DHT22;6550;48.650;8.774;2023-05-10T18:01:06;18.60;94.00
12971;DHT22;6550;48.650;8.774;2023-05-10T18:03:33;18.60;94.30
12971;DHT22;6550;48.650;8.774;2023-05-10T18:06:02;18.60;93.20
12971;DHT22;6550;48.650;8.774;2023-05-10T18:08:30;18.50;93.80
12971;DHT22;6550;48.650;8.774;2023-05-10T18:10:56;18.70;93.50
12971;DHT22;6550;48.650;8.774;2023-05-10T18:13:23;18.40;93.70
12971;DHT22;6550;48.650;8.774;2023-05-10T18:15:51;18.30;93.80
12971;DHT22;6550;48.650;8.774;2023-05-10T18:18:20;18.20;93.80
12971;DHT22;6550;48.650;8.774;2023-05-10T18:20:47;18.10;93.90
12971;DHT22;6550;48.650;8.774;2023-05-10T18:23:17;18.10;93.80
12971;DHT22;6550;48.650;8.774;2023-05-10T18:25:44;18.00;94.00